Time;durP1;ratioP1;P1;durP2;ratioP2;P2;SDS_P1;SDS_P2;PMS_P1;PMS_P2;Temp;Humidity;BMP_temperature;BMP_pressure;BME280_temperature;BME280_humidity;BME280_pressure;Samples;Min_cycle;Max_cycle;Signal;HPM_P1;HPM_P2
2022/05/10 00:02:11;;;;;;;13.75;12.38;;;16.80;99.90;;;;;;5055724;28;20203;-68
2022/05/10 00:04:40;;;;;;;14.57;13.10;;;16.80;99.90;;;;;;5055790;28;20242;-68
2022/05/10 00:07:07;;;;;;;13.93;12.63;;;16.80;99.90;;;;;;5055916;28;20204;-68
2022/05/10 00:09:34;;;;;;;14.50;13.05;;;16.70;99.90;;;;;;5055468;28;20207;-68
2022/05/10 00:12:01;;;;;;;14.63;13.13;;;16.70;99.90;;;;;;5055667;28;20228;-68
2022/05/10 00:14:29;;;;;;;14.65;13.05;;;16.60;99.90;;;;;;5055804;28;20229;-68
2022/05/10 00:16:56;;;;;;;15.40;14.00;;;16.60;99.90;;;;;;5055600;28;20199;-68
2022/05/10 00:19:27;;;;;;;15.20;13.60;;;16.60;99.90;;;;;;5055609;28;20203;-68
2022/05/10 00:21:56;;;;;;;14.75;13.10;;;16.50;99.90;;;;;;5055795;28;20206;-68
2022/05/10 00:24:23;;;;;;;13.60;12.25;;;16.40;99.90;;;;;;5055400;28;20234;-68
2022/05/10 00:26:50;;;;;;;15.25;13.00;;;16.40;99.90;;;;;;5055711;28;20218;-68
2022/05/10 00:29:17;;;;;;;14.13;12.82;;;16.40;99.90;;;;;;5055446;28;20202;-68
2022/05/10 00:31:44;;;;;;;14.93;13.45;;;16.40;99.90;;;;;;5055409;28;20607;-68
2022/05/10 00:34:15;;;;;;;15.07;13.55;;;16.40;99.90;;;;;;5054996;28;20216;-68
2022/05/10 00:36:42;;;;;;;15.93;14.25;;;16.50;99.90;;;;;;5055316;28;20188;-69
2022/05/10 00:39:11;;;;;;;15.48;13.93;;;16.50;99.90;;;;;;5055364;28;20691;-68
2022/05/10 00:41:49;;;;;;;14.13;12.73;;;16.50;99.90;;;;;;5055186;28;20213;-68
2022/05/10 00:44:20;;;;;;;13.98;12.57;;;16.60;99.90;;;;;;5054710;28;20676;-68
2022/05/10 00:46:57;;;;;;;13.93;12.55;;;16.50;99.90;;;;;;5054916;28;20633;-68
2022/05/10 00:49:30;;;;;;;14.25;12.52;;;16.50;99.90;;;;;;5055023;28;20210;-68
2022/05/10 00:52:02;;;;;;;14.23;12.85;;;16.50;99.90;;;;;;5055091;28;20205;-68
2022/05/10 00:54:38;;;;;;;13.95;12.50;;;16.50;99.90;;;;;;5054404;28;20230;-68
2022/05/10 00:57:15;;;;;;;17.23;13.65;;;16.50;99.90;;;;;;5055065;28;20217;-68
2022/05/10 00:59:51;;;;;;;14.50;12.88;;;16.50;99.90;;;;;;5054789;28;20628;-69
2022/05/10 01:02:28;;;;;;;14.35;12.95;;;16.50;99.90;;;;;;5054651;28;20292;-68
2022/05/10 01:04:59;;;;;;;16.27;13.27;;;16.50;99.90;;;;;;5054774;28;20234;-68
2022/05/10 01:07:32;;;;;;;17.00;14.45;;;16.40;99.90;;;;;;5053736;28;20294;-68
2022/05/10 01:10:05;;;;;;;16.02;14.40;;;16.30;99.90;;;;;;5054687;28;20210;-68
2022/05/10 01:12:35;;;;;;;14.82;13.32;;;16.20;99.90;;;;;;5054638;28;20203;-68
2022/05/10 01:15:06;;;;;;;16.08;14.55;;;16.20;99.90;;;;;;5054742;28;20227;-68
2022/05/10 01:17:33;;;;;;;16.02;14.52;;;16.20;99.90;;;;;;5054485;28;20215;-68
2022/05/10 01:20:00;;;;;;;14.80;13.40;;;16.20;99.90;;;;;;5054420;28;20683;-68
2022/05/10 01:22:53;;;;;;;14.93;13.43;;;16.10;99.90;;;;;;5054240;28;20210;-68
2022/05/10 01:25:35;;;;;;;15.60;14.10;;;16.10;99.90;;;;;;5054276;28;20353;-68
2022/05/10 01:28:22;;;;;;;14.88;13.43;;;16.10;99.90;;;;;;5054304;28;20298;-68
2022/05/10 01:30:50;;;;;;;14.60;13.20;;;16.10;99.90;;;;;;5054176;28;20217;-68
2022/05/10 01:33:31;;;;;;;14.75;13.23;;;16.10;99.90;;;;;;5053969;28;20202;-68
2022/05/10 01:36:24;;;;;;;15.23;13.63;;;16.10;99.90;;;;;;5054290;28;20257;-68
2022/05/10 01:38:58;;;;;;;16.25;14.65;;;16.10;99.90;;;;;;5054139;28;20213;-68
2022/05/10 01:41:34;;;;;;;14.82;13.32;;;16.10;99.90;;;;;;5054047;28;20211;-68
2022/05/10 01:44:07;;;;;;;15.75;14.00;;;16.00;99.90;;;;;;5053898;28;20237;-68
2022/05/10 01:46:34;;;;;;;15.57;13.93;;;15.90;99.90;;;;;;5054091;28;20191;-68
2022/05/10 01:49:16;;;;;;;16.45;14.85;;;15.90;99.90;;;;;;5053960;28;20213;-68
2022/05/10 01:51:49;;;;;;;15.23;13.73;;;15.80;99.90;;;;;;5053859;28;20206;-68
2022/05/10 01:55:02;;;;;;;16.20;14.57;;;15.70;99.90;;;;;;5053397;28;20712;-68
2022/05/10 01:57:31;;;;;;;14.95;13.45;;;15.70;99.90;;;;;;5053784;28;20209;-68
2022/05/10 02:00:06;;;;;;;16.33;14.57;;;15.70;99.90;;;;;;5053778;28;20211;-68
2022/05/10 02:02:36;;;;;;;16.38;14.70;;;15.70;99.90;;;;;;5053677;28;20221;-68
2022/05/10 02:05:08;;;;;;;17.63;15.60;;;15.70;99.90;;;;;;5053661;28;20229;-68
2022/05/10 02:07:37;;;;;;;16.02;14.45;;;15.60;99.90;;;;;;5053724;28;20220;-68
2022/05/10 02:10:09;;;;;;;16.10;14.50;;;15.70;99.90;;;;;;5053636;28;20205;-68
2022/05/10 02:12:39;;;;;;;16.42;14.63;;;15.60;99.90;;;;;;5053373;28;20211;-68
2022/05/10 02:15:13;;;;;;;16.15;14.55;;;15.60;99.90;;;;;;5053622;28;20252;-68
2022/05/10 02:17:45;;;;;;;16.27;14.57;;;15.60;99.90;;;;;;5053629;28;20227;-68
2022/05/10 02:20:17;;;;;;;16.00;14.40;;;15.60;99.90;;;;;;5053141;28;20217;-68
2022/05/10 02:22:48;;;;;;;15.63;14.02;;;15.60;99.90;;;;;;5053266;28;20210;-68
2022/05/10 02:25:18;;;;;;;16.67;14.95;;;15.60;99.90;;;;;;5053435;28;20232;-68
2022/05/10 02:27:51;;;;;;;18.45;15.43;;;15.50;99.90;;;;;;5053516;28;20622;-68
2022/05/10 02:30:23;;;;;;;16.60;14.90;;;15.40;99.90;;;;;;5053324;28;20204;-68
2022/05/10 02:33:10;;;;;;;17.15;15.45;;;15.40;99.90;;;;;;5053048;28;20214;-68
2022/05/10 02:35:43;;;;;;;17.20;15.50;;;15.30;99.90;;;;;;5053310;28;20228;-68
2022/05/10 02:38:13;;;;;;;16.75;15.05;;;15.30;99.90;;;;;;5053169;28;20218;-68
2022/05/10 02:40:41;;;;;;;17.75;15.82;;;15.30;99.90;;;;;;5053277;28;20211;-68
2022/05/10 02:43:12;;;;;;;17.05;15.35;;;15.30;99.90;;;;;;5053137;28;20212;-68
2022/05/10 02:45:41;;;;;;;20.00;16.23;;;15.30;99.90;;;;;;5053238;28;20587;-68
2022/05/10 02:48:14;;;;;;;16.63;14.90;;;15.30;99.90;;;;;;5053236;28;20210;-68
2022/05/10 02:50:42;;;;;;;17.35;15.68;;;15.40;99.90;;;;;;5053238;28;20204;-68
2022/05/10 02:53:08;;;;;;;18.00;16.17;;;15.40;99.90;;;;;;5053301;28;20208;-68
2022/05/10 02:55:41;;;;;;;17.85;16.05;;;15.40;99.90;;;;;;5053064;28;20598;-68
2022/05/10 02:58:15;;;;;;;18.02;15.48;;;15.40;99.90;;;;;;5053202;28;20216;-68
2022/05/10 03:00:43;;;;;;;17.52;15.32;;;15.40;99.90;;;;;;5053344;28;20206;-68
2022/05/10 03:03:16;;;;;;;17.13;15.43;;;15.40;99.90;;;;;;5052811;28;20685;-68
2022/05/10 03:05:43;;;;;;;16.95;15.20;;;15.30;99.90;;;;;;5053032;28;20235;-68
2022/05/10 03:08:10;;;;;;;17.08;15.38;;;15.30;99.90;;;;;;5053071;28;20562;-68
2022/05/10 03:10:36;;;;;;;18.05;16.23;;;15.30;99.90;;;;;;5053058;28;20666;-68
2022/05/10 03:13:03;;;;;;;18.17;16.33;;;15.30;99.90;;;;;;5052719;28;20296;-68
2022/05/10 03:15:30;;;;;;;17.50;15.70;;;15.30;99.90;;;;;;5052974;28;20232;-68
2022/05/10 03:17:59;;;;;;;17.10;15.30;;;15.30;99.90;;;;;;5053008;28;20208;-68
2022/05/10 03:20:26;;;;;;;16.52;14.88;;;15.30;99.90;;;;;;5053037;28;20201;-68
2022/05/10 03:22:52;;;;;;;16.38;14.82;;;15.30;99.90;;;;;;5052695;28;20205;-68
2022/05/10 03:25:20;;;;;;;16.75;15.02;;;15.30;99.90;;;;;;5052825;28;20239;-68
2022/05/10 03:27:48;;;;;;;16.85;15.13;;;15.20;99.90;;;;;;5052736;28;20746;-67
2022/05/10 03:30:16;;;;;;;17.13;15.43;;;15.20;99.90;;;;;;5052945;28;20206;-68
2022/05/10 03:32:43;;;;;;;17.13;15.15;;;15.20;99.90;;;;;;5056371;28;20205;-68
2022/05/10 03:35:12;;;;;;;17.58;15.80;;;15.20;99.90;;;;;;5056410;28;20314;-68
2022/05/10 03:37:38;;;;;;;17.50;15.63;;;15.10;99.90;;;;;;5056375;28;20722;-68
2022/05/10 03:40:07;;;;;;;17.35;15.35;;;15.10;99.90;;;;;;5056368;28;20295;-68
2022/05/10 03:42:33;;;;;;;16.17;14.57;;;15.10;99.90;;;;;;5056145;28;20212;-68
2022/05/10 03:45:00;;;;;;;22.00;17.35;;;15.10;99.90;;;;;;5056186;28;20234;-68
2022/05/10 03:47:30;;;;;;;17.85;15.95;;;15.10;99.90;;;;;;5056210;28;20209;-68
2022/05/10 03:49:58;;;;;;;18.25;16.35;;;15.00;99.90;;;;;;5056075;28;20654;-68
2022/05/10 03:52:27;;;;;;;19.08;16.30;;;14.90;99.90;;;;;;5055977;28;20208;-68
2022/05/10 03:54:54;;;;;;;18.15;16.25;;;14.90;99.90;;;;;;5055715;28;20706;-68
2022/05/10 03:57:21;;;;;;;17.88;15.98;;;14.90;99.90;;;;;;5056114;28;20570;-70
2022/05/10 03:59:48;;;;;;;17.60;15.80;;;14.90;99.90;;;;;;5056241;28;20207;-68
2022/05/10 04:02:16;;;;;;;17.77;15.50;;;14.90;99.90;;;;;;5055730;28;20207;-67
2022/05/10 04:04:43;;;;;;;19.73;16.60;;;14.90;99.90;;;;;;5055759;28;20271;-68
2022/05/10 04:07:10;;;;;;;17.42;15.55;;;14.90;99.90;;;;;;5055764;28;20205;-67
2022/05/10 04:09:38;;;;;;;19.10;16.90;;;14.90;99.90;;;;;;5055849;28;20213;-69
2022/05/10 04:12:06;;;;;;;17.73;15.93;;;14.90;99.90;;;;;;5055805;28;20215;-70
2022/05/10 04:14:32;;;;;;;17.65;15.68;;;14.80;99.90;;;;;;5056014;28;20225;-68
2022/05/10 04:16:59;;;;;;;17.45;15.65;;;14.80;99.90;;;;;;5055717;28;20200;-68
2022/05/10 04:19:26;;;;;;;17.70;15.80;;;14.90;99.90;;;;;;5055774;28;20657;-69
2022/05/10 04:21:53;;;;;;;18.08;15.57;;;14.90;99.90;;;;;;5055611;28;20250;-69
2022/05/10 04:24:20;;;;;;;17.23;15.45;;;14.90;99.90;;;;;;5055390;28;20644;-69
2022/05/10 04:26:48;;;;;;;18.20;16.13;;;14.90;99.90;;;;;;5055655;28;20261;-69
2022/05/10 04:29:16;;;;;;;18.17;16.25;;;14.90;99.90;;;;;;5055458;28;20573;-69
2022/05/10 04:31:43;;;;;;;18.25;16.35;;;14.90;99.90;;;;;;5055533;28;20211;-69
2022/05/10 04:34:09;;;;;;;18.70;16.70;;;14.60;99.90;;;;;;5055184;28;20258;-68
2022/05/10 04:36:36;;;;;;;18.67;16.70;;;14.70;99.90;;;;;;5055301;28;20322;-70
2022/05/10 04:39:03;;;;;;;17.70;15.88;;;14.80;99.90;;;;;;5055244;28;20199;-70
2022/05/10 04:41:31;;;;;;;17.80;16.00;;;14.80;99.90;;;;;;5055013;28;20299;-69
2022/05/10 04:44:03;;;;;;;18.08;16.17;;;14.80;99.90;;;;;;5054932;28;20637;-69
2022/05/10 04:46:31;;;;;;;19.85;15.57;;;14.90;99.90;;;;;;5055167;28;20224;-69
2022/05/10 04:48:58;;;;;;;18.00;16.10;;;14.80;99.90;;;;;;5055042;28;20231;-69
2022/05/10 04:51:26;;;;;;;17.80;16.00;;;14.80;99.90;;;;;;5055030;28;20208;-70
2022/05/10 04:53:52;;;;;;;18.48;16.40;;;14.90;99.90;;;;;;5054692;28;20236;-69
2022/05/10 04:56:19;;;;;;;18.20;16.05;;;14.80;99.90;;;;;;5055062;28;20562;-69
2022/05/10 04:58:46;;;;;;;18.45;16.55;;;14.70;99.90;;;;;;5054958;28;20205;-69
2022/05/10 05:01:16;;;;;;;19.55;17.48;;;14.80;99.90;;;;;;5055100;28;20216;-67
2022/05/10 05:03:44;;;;;;;18.30;16.13;;;14.90;99.90;;;;;;5054494;28;20201;-70
2022/05/10 05:06:11;;;;;;;19.83;15.48;;;15.00;99.90;;;;;;5054774;28;20225;-69
2022/05/10 05:08:38;;;;;;;17.48;15.68;;;15.10;99.90;;;;;;5054721;28;20300;-70
2022/05/10 05:11:05;;;;;;;19.63;17.52;;;15.20;99.90;;;;;;5054657;28;20496;-69
2022/05/10 05:13:32;;;;;;;19.30;17.20;;;15.30;99.90;;;;;;5054245;28;20205;-69
2022/05/10 05:15:59;;;;;;;19.70;17.63;;;15.30;99.90;;;;;;5054554;28;20659;-69
2022/05/10 05:18:28;;;;;;;19.77;17.75;;;15.40;99.90;;;;;;5054579;28;20202;-69
2022/05/10 05:20:55;;;;;;;20.83;18.67;;;15.30;99.90;;;;;;5054562;28;20563;-69
2022/05/10 05:23:23;;;;;;;20.98;18.67;;;15.30;99.90;;;;;;5054266;28;20306;-69
2022/05/10 05:25:52;;;;;;;20.40;18.33;;;15.40;99.90;;;;;;5053957;28;20231;-69
2022/05/10 05:28:20;;;;;;;20.67;18.48;;;15.50;99.90;;;;;;5054393;28;20291;-69
2022/05/10 05:30:47;;;;;;;21.48;18.98;;;15.50;99.90;;;;;;5054279;28;20206;-69
2022/05/10 05:33:14;;;;;;;21.88;19.00;;;15.60;99.90;;;;;;5054377;28;20206;-69
2022/05/10 05:35:43;;;;;;;22.52;20.10;;;15.60;99.90;;;;;;5054413;28;20226;-69
2022/05/10 05:38:11;;;;;;;22.08;19.58;;;15.70;99.90;;;;;;5054140;28;20219;-70
2022/05/10 05:40:39;;;;;;;21.75;19.55;;;15.70;99.90;;;;;;5054094;28;20297;-69
2022/05/10 05:43:06;;;;;;;21.63;19.40;;;15.70;99.90;;;;;;5053751;28;20630;-69
2022/05/10 05:45:33;;;;;;;22.70;20.20;;;15.80;99.90;;;;;;5054173;28;20232;-69
2022/05/10 05:48:00;;;;;;;20.05;18.10;;;15.80;99.90;;;;;;5053912;28;20260;-69
2022/05/10 05:50:27;;;;;;;21.60;19.30;;;15.90;99.90;;;;;;5053962;28;20289;-69
2022/05/10 05:52:55;;;;;;;21.67;19.42;;;15.90;99.90;;;;;;5053658;28;20212;-69
2022/05/10 05:55:22;;;;;;;20.88;18.52;;;15.90;99.90;;;;;;5053310;28;20234;-69
2022/05/10 05:57:49;;;;;;;20.35;18.25;;;15.90;99.90;;;;;;5053834;28;20211;-69
2022/05/10 06:00:19;;;;;;;21.52;19.42;;;15.80;99.90;;;;;;5053591;28;20210;-69
2022/05/10 06:02:46;;;;;;;20.70;18.55;;;15.90;99.90;;;;;;5053518;28;20636;-69
2022/05/10 06:05:13;;;;;;;22.67;20.27;;;16.00;99.90;;;;;;5053353;28;20712;-69
2022/05/10 06:07:40;;;;;;;19.70;17.70;;;16.00;99.90;;;;;;5053740;28;20221;-69
2022/05/10 06:10:10;;;;;;;21.60;18.60;;;16.00;99.90;;;;;;5053678;28;20222;-69
2022/05/10 06:12:37;;;;;;;21.23;19.02;;;16.00;99.90;;;;;;5054234;28;20202;-69
2022/05/10 06:15:08;;;;;;;20.83;18.67;;;16.00;99.90;;;;;;5053560;28;20254;-69
2022/05/10 06:17:36;;;;;;;19.95;17.75;;;15.90;99.90;;;;;;5053708;28;20607;-69
2022/05/10 06:20:06;;;;;;;21.15;18.95;;;15.90;99.90;;;;;;5053672;28;20203;-69
2022/05/10 06:22:33;;;;;;;22.58;18.90;;;15.80;99.90;;;;;;5053289;28;20261;-70
2022/05/10 06:25:00;;;;;;;21.17;18.98;;;15.80;99.90;;;;;;5053115;28;20725;-69
2022/05/10 06:27:28;;;;;;;21.55;19.25;;;15.80;99.90;;;;;;5053561;28;20573;-69
2022/05/10 06:29:55;;;;;;;20.45;18.27;;;15.90;99.90;;;;;;5053428;28;20210;-69
2022/05/10 06:32:24;;;;;;;20.70;18.50;;;15.90;99.90;;;;;;5053374;28;20237;-69
2022/05/10 06:34:52;;;;;;;22.08;18.58;;;16.00;99.90;;;;;;5053073;28;20229;-69
2022/05/10 06:40:09;;;;;;;21.70;19.40;;;15.90;99.90;;;;;;5053445;28;20205;-69
2022/05/10 06:42:38;;;;;;;24.35;19.08;;;15.90;99.90;;;;;;5053107;28;20207;-69
2022/05/10 06:45:10;;;;;;;20.15;18.10;;;16.10;99.90;;;;;;5053127;28;20232;-69
2022/05/10 06:47:37;;;;;;;18.80;16.75;;;16.20;99.90;;;;;;5053241;28;20268;-69
2022/05/10 06:50:06;;;;;;;20.13;17.90;;;16.30;99.90;;;;;;5053253;28;20217;-69
2022/05/10 06:52:33;;;;;;;19.33;17.40;;;16.40;99.90;;;;;;5053093;28;20206;-69
2022/05/10 06:55:00;;;;;;;21.38;17.52;;;16.50;99.90;;;;;;5052815;28;20235;-69
2022/05/10 06:57:26;;;;;;;19.38;17.35;;;16.70;99.90;;;;;;5053137;28;20199;-70
2022/05/10 06:59:55;;;;;;;19.83;17.83;;;16.70;99.90;;;;;;5053198;28;20294;-69
2022/05/10 07:02:23;;;;;;;22.20;19.75;;;16.80;99.90;;;;;;5052917;28;20335;-70
2022/05/10 07:04:49;;;;;;;20.10;17.95;;;16.80;99.90;;;;;;5053243;28;20230;-70
2022/05/10 07:07:16;;;;;;;18.92;16.92;;;16.90;99.90;;;;;;5056227;28;20318;-69
2022/05/10 07:09:43;;;;;;;19.02;16.98;;;16.90;99.90;;;;;;5056808;28;20213;-69
2022/05/10 07:12:12;;;;;;;17.23;15.35;;;17.00;99.90;;;;;;5056745;28;20205;-70
2022/05/10 07:14:38;;;;;;;20.10;16.90;;;17.10;99.90;;;;;;5056927;28;20262;-69
2022/05/10 07:17:07;;;;;;;18.13;16.38;;;17.20;99.90;;;;;;5056640;28;20672;-69
2022/05/10 07:19:33;;;;;;;19.23;17.25;;;17.30;99.90;;;;;;5056541;28;20665;-70
2022/05/10 07:22:00;;;;;;;18.83;16.33;;;17.40;99.90;;;;;;5056761;28;20288;-70
2022/05/10 07:24:27;;;;;;;18.33;16.27;;;17.50;99.90;;;;;;5056283;28;20230;-70
2022/05/10 07:26:54;;;;;;;18.15;16.25;;;17.60;99.90;;;;;;5056300;28;20254;-69
2022/05/10 07:29:22;;;;;;;17.80;16.10;;;17.70;99.90;;;;;;5056524;28;20208;-69
2022/05/10 07:31:49;;;;;;;18.58;16.67;;;17.80;99.90;;;;;;5056293;28;20219;-69
2022/05/10 07:34:17;;;;;;;16.77;15.13;;;17.90;99.90;;;;;;5056275;28;20229;-69
2022/05/10 07:36:44;;;;;;;17.25;15.55;;;17.90;99.90;;;;;;5056485;28;20203;-69
2022/05/10 07:39:14;;;;;;;18.40;16.70;;;18.00;99.90;;;;;;5056438;28;20626;-69
2022/05/10 07:41:43;;;;;;;18.50;16.60;;;18.00;99.90;;;;;;5056333;28;20661;-70
2022/05/10 07:44:12;;;;;;;18.15;16.25;;;18.10;99.90;;;;;;5056223;28;20259;-69
2022/05/10 07:46:39;;;;;;;17.95;15.40;;;18.30;99.90;;;;;;5056169;28;20311;-69
2022/05/10 07:49:06;;;;;;;17.88;15.30;;;18.50;99.90;;;;;;5056227;28;20250;-69
2022/05/10 07:51:34;;;;;;;15.90;14.30;;;18.60;99.90;;;;;;5056159;28;20204;-69
2022/05/10 07:54:01;;;;;;;16.23;14.60;;;18.70;99.90;;;;;;5055707;28;20485;-70
2022/05/10 07:56:28;;;;;;;15.88;14.38;;;18.80;99.90;;;;;;5056049;28;20201;-69
2022/05/10 07:58:56;;;;;;;16.10;14.50;;;19.10;99.90;;;;;;5056076;28;20210;-69
2022/05/10 08:01:23;;;;;;;16.20;14.60;;;19.50;99.90;;;;;;5056010;28;20439;-69
2022/05/10 08:03:50;;;;;;;13.83;12.60;;;19.90;99.90;;;;;;5055757;28;20440;-69
2022/05/10 08:06:17;;;;;;;14.73;13.33;;;20.20;99.90;;;;;;5056002;28;20488;-69
2022/05/10 08:08:46;;;;;;;14.50;13.10;;;20.30;99.90;;;;;;5055917;28;20531;-69
2022/05/10 08:11:13;;;;;;;13.63;11.73;;;20.50;99.90;;;;;;5055785;28;20825;-70
2022/05/10 08:13:41;;;;;;;12.23;11.03;;;21.20;99.90;;;;;;5055335;28;20940;-69
2022/05/10 08:16:09;;;;;;;11.53;10.50;;;22.50;99.90;;;;;;5055549;28;20481;-69
2022/05/10 08:18:39;;;;;;;11.13;9.97;;;23.90;99.00;;;;;;5055414;28;20434;-67
2022/05/10 08:21:06;;;;;;;10.87;9.80;;;25.40;94.60;;;;;;5055513;28;20932;-67
2022/05/10 08:23:35;;;;;;;10.30;9.50;;;26.90;90.90;;;;;;5055080;28;20449;-68
2022/05/10 08:26:05;;;;;;;12.33;10.53;;;28.60;83.30;;;;;;5055565;28;20820;-68
2022/05/10 08:28:34;;;;;;;10.70;9.80;;;30.30;73.00;;;;;;5055321;28;21041;-67
2022/05/10 08:31:03;;;;;;;9.77;8.90;;;31.80;65.40;;;;;;5055507;28;20500;-68
2022/05/10 08:33:31;;;;;;;11.10;10.30;;;32.60;60.70;;;;;;5055259;28;20442;-68
2022/05/10 08:35:59;;;;;;;9.30;8.60;;;34.00;56.00;;;;;;5055083;28;20448;-68
2022/05/10 08:38:27;;;;;;;9.37;8.67;;;34.70;51.30;;;;;;5055380;28;20516;-68
2022/05/10 08:41:00;;;;;;;10.20;9.50;;;34.40;49.20;;;;;;5055081;28;20533;-68
2022/05/10 08:43:34;;;;;;;11.93;10.93;;;33.10;50.00;;;;;;5055126;28;20479;-68
2022/05/10 08:46:03;;;;;;;11.60;10.70;;;31.60;51.60;;;;;;5055241;28;20441;-68
2022/05/10 08:48:32;;;;;;;11.70;10.70;;;30.50;54.20;;;;;;5055011;28;20457;-68
2022/05/10 08:50:59;;;;;;;11.37;10.47;;;29.70;57.00;;;;;;5055120;28;20533;-68
2022/05/10 08:53:27;;;;;;;10.50;9.70;;;29.60;59.80;;;;;;5054763;28;20803;-68
2022/05/10 08:56:00;;;;;;;10.10;9.30;;;30.00;57.90;;;;;;5055018;28;20864;-68
2022/05/10 08:58:53;;;;;;;10.70;9.70;;;31.60;56.60;;;;;;5054822;28;20444;-68
2022/05/10 09:01:23;;;;;;;9.93;9.23;;;33.60;53.20;;;;;;5050388;28;20449;-68
2022/05/10 09:03:58;;;;;;;9.63;8.93;;;35.00;50.10;;;;;;5054592;28;20842;-68
2022/05/10 09:06:36;;;;;;;10.20;9.50;;;36.20;48.00;;;;;;5054814;28;20800;-68
2022/05/10 09:09:13;;;;;;;10.87;10.10;;;37.00;44.20;;;;;;5054752;28;20446;-68
2022/05/10 09:11:48;;;;;;;9.70;9.10;;;37.00;41.70;;;;;;5054730;28;20521;-68
2022/05/10 09:14:17;;;;;;;8.90;8.37;;;37.00;42.30;;;;;;5054390;28;20465;-68
2022/05/10 09:16:43;;;;;;;9.33;8.63;;;38.20;42.90;;;;;;5054745;28;20453;-68
2022/05/10 09:19:12;;;;;;;8.53;7.97;;;38.20;41.10;;;;;;5054515;28;20496;-68
2022/05/10 09:21:48;;;;;;;8.80;8.20;;;39.30;39.90;;;;;;5054410;28;20845;-68
2022/05/10 09:24:25;;;;;;;8.50;8.00;;;39.50;38.30;;;;;;5054257;28;20519;-68
2022/05/10 09:26:54;;;;;;;9.13;8.53;;;39.60;37.00;;;;;;5054290;28;20481;-68
2022/05/10 09:29:32;;;;;;;8.80;8.30;;;39.40;35.20;;;;;;5053462;28;20446;-68
2022/05/10 09:34:55;;;;;;;8.60;8.00;;;39.60;34.80;;;;;;5054091;28;20816;-68
2022/05/10 09:37:26;;;;;;;8.47;7.77;;;39.60;36.20;;;;;;5054276;28;21047;-68
2022/05/10 09:40:06;;;;;;;8.43;7.83;;;39.20;34.40;;;;;;5054035;28;20450;-68
2022/05/10 09:42:35;;;;;;;7.53;6.93;;;39.20;33.50;;;;;;5053991;28;20785;-68
2022/05/10 09:45:06;;;;;;;7.90;7.33;;;39.30;33.00;;;;;;5053874;28;20472;-68
2022/05/10 09:47:34;;;;;;;7.40;7.00;;;39.10;33.10;;;;;;5053802;28;20990;-68
2022/05/10 09:50:19;;;;;;;7.43;7.03;;;39.10;32.00;;;;;;5054055;28;20452;-69
2022/05/10 09:52:47;;;;;;;6.73;6.33;;;38.70;32.90;;;;;;5053707;28;20480;-69
2022/05/10 09:55:26;;;;;;;7.50;7.10;;;38.60;33.70;;;;;;5053916;28;20477;-69
2022/05/10 09:57:53;;;;;;;7.73;7.23;;;38.20;34.00;;;;;;5053997;28;20454;-68
2022/05/10 10:00:39;;;;;;;7.47;6.97;;;38.20;34.40;;;;;;5053888;28;20452;-69
2022/05/10 10:03:06;;;;;;;7.63;7.23;;;39.10;33.20;;;;;;5053550;28;20457;-69
2022/05/10 10:05:36;;;;;;;7.97;7.47;;;39.00;32.70;;;;;;5053766;28;20465;-69
2022/05/10 10:08:03;;;;;;;6.93;6.53;;;39.50;32.90;;;;;;5053640;28;20835;-68
2022/05/10 10:10:32;;;;;;;7.47;7.00;;;40.40;31.80;;;;;;5053639;28;20449;-68
2022/05/10 10:13:00;;;;;;;7.60;7.20;;;40.90;31.50;;;;;;5053473;28;20445;-69
2022/05/10 10:15:36;;;;;;;7.20;6.80;;;41.20;31.20;;;;;;5053590;28;20473;-68
2022/05/10 10:18:06;;;;;;;9.40;8.90;;;41.10;31.30;;;;;;5053538;28;20437;-68
2022/05/10 10:20:39;;;;;;;8.47;7.97;;;40.40;31.30;;;;;;5053415;28;20500;-69
2022/05/10 10:23:11;;;;;;;7.87;7.37;;;39.70;30.70;;;;;;5053094;28;20997;-68
2022/05/10 10:25:42;;;;;;;8.37;7.67;;;38.80;31.40;;;;;;5053807;28;20553;-69
2022/05/10 10:28:18;;;;;;;7.60;7.10;;;38.60;34.20;;;;;;5053473;28;20565;-69
2022/05/10 10:30:51;;;;;;;7.70;7.20;;;38.60;32.80;;;;;;5053457;28;20503;-68
2022/05/10 10:33:28;;;;;;;8.30;7.70;;;38.10;34.00;;;;;;5053381;28;20438;-69
2022/05/10 10:35:59;;;;;;;7.47;7.07;;;37.60;33.10;;;;;;5053437;28;20470;-68
2022/05/10 10:38:32;;;;;;;7.67;7.17;;;38.60;33.60;;;;;;5053745;28;20433;-68
2022/05/10 10:41:04;;;;;;;7.00;6.60;;;38.10;32.20;;;;;;5056126;28;20503;-69
2022/05/10 10:43:39;;;;;;;7.30;6.90;;;38.20;32.10;;;;;;5057273;28;20449;-69
2022/05/10 10:46:19;;;;;;;6.67;6.20;;;38.20;31.00;;;;;;5057473;28;20433;-69
2022/05/10 10:48:48;;;;;;;7.37;6.87;;;37.30;32.10;;;;;;5057289;28;21002;-69
2022/05/10 10:51:16;;;;;;;7.27;6.83;;;36.70;31.50;;;;;;5057270;28;20535;-69
2022/05/10 10:53:47;;;;;;;7.60;7.10;;;36.30;33.10;;;;;;5056713;28;20454;-69
2022/05/10 10:56:43;;;;;;;7.30;6.80;;;35.30;36.80;;;;;;5057128;28;20929;-68
2022/05/10 10:59:24;;;;;;;7.90;7.30;;;34.20;36.20;;;;;;5057162;28;20449;-68
2022/05/10 11:02:10;;;;;;;7.83;7.33;;;32.60;38.40;;;;;;5057021;28;20453;-68
2022/05/10 11:04:56;;;;;;;8.57;7.97;;;31.70;42.60;;;;;;5057054;28;20476;-68
2022/05/10 11:07:32;;;;;;;8.70;8.10;;;31.40;42.00;;;;;;5056839;28;20470;-68
2022/05/10 11:10:07;;;;;;;7.57;7.07;;;31.00;44.20;;;;;;5056932;28;20965;-68
2022/05/10 11:12:48;;;;;;;8.53;7.93;;;30.80;42.20;;;;;;5056521;28;20927;-68
2022/05/10 11:15:26;;;;;;;7.90;7.30;;;30.10;43.00;;;;;;5056908;28;20568;-68
2022/05/10 11:18:04;;;;;;;8.03;7.43;;;29.60;43.60;;;;;;5056818;28;20477;-68
2022/05/10 11:20:44;;;;;;;9.07;8.23;;;29.10;44.90;;;;;;5056746;28;20530;-68
2022/05/10 11:23:21;;;;;;;7.90;7.30;;;28.60;45.90;;;;;;5056813;28;20960;-68
2022/05/10 11:26:11;;;;;;;7.43;6.83;;;28.50;45.50;;;;;;5056724;28;20462;-68
2022/05/10 11:28:58;;;;;;;7.70;7.10;;;28.10;47.20;;;;;;5056530;28;20483;-70
2022/05/10 11:31:33;;;;;;;7.97;7.33;;;27.80;48.20;;;;;;5056372;28;20528;-70
2022/05/10 11:34:17;;;;;;;7.80;7.20;;;27.60;49.10;;;;;;5056277;28;20469;-70
2022/05/10 11:36:48;;;;;;;8.00;7.20;;;27.60;49.90;;;;;;5056615;28;20436;-70
2022/05/10 11:39:43;;;;;;;7.80;7.20;;;27.60;49.70;;;;;;5056498;28;20832;-69
2022/05/10 11:42:22;;;;;;;8.40;7.60;;;27.90;49.30;;;;;;5056102;28;20448;-69
2022/05/10 11:45:32;;;;;;;7.83;7.23;;;28.10;47.60;;;;;;5055983;28;20554;-69
2022/05/10 11:48:38;;;;;;;8.47;7.80;;;28.40;47.20;;;;;;5056677;28;20483;-70
2022/05/10 11:51:43;;;;;;;8.60;7.80;;;28.30;46.90;;;;;;5052020;28;20449;-70
2022/05/10 11:54:48;;;;;;;8.17;7.57;;;28.10;48.10;;;;;;5055543;28;20816;-69
2022/05/10 11:57:17;;;;;;;9.70;8.90;;;28.00;47.50;;;;;;5055775;28;20446;-68
2022/05/10 11:59:45;;;;;;;9.10;8.40;;;28.10;48.80;;;;;;5055987;28;20533;-68
2022/05/10 12:02:43;;;;;;;7.83;6.90;;;28.10;46.60;;;;;;5055731;28;20439;-69
2022/05/10 12:05:23;;;;;;;7.50;7.00;;;27.90;47.00;;;;;;5032686;28;20470;-69
2022/05/10 12:07:52;;;;;;;6.80;6.30;;;28.00;46.20;;;;;;5055813;28;20537;-68
2022/05/10 12:10:37;;;;;;;9.60;8.90;;;27.90;46.10;;;;;;5055740;28;20444;-68
2022/05/10 12:13:06;;;;;;;7.57;6.87;;;27.70;46.90;;;;;;5055641;28;20495;-68
2022/05/10 12:21:52;;;;;;;6.73;6.23;;;27.80;47.00;;;;;;5055735;28;20508;-68
2022/05/10 12:24:36;;;;;;;7.83;7.23;;;27.70;47.50;;;;;;5055462;28;20467;-68
2022/05/10 12:27:37;;;;;;;6.83;6.33;;;27.40;47.20;;;;;;5055602;28;20430;-68
2022/05/10 12:30:32;;;;;;;6.90;6.40;;;27.00;50.10;;;;;;5013575;28;20471;-68
2022/05/10 12:32:59;;;;;;;10.20;9.20;;;27.00;46.70;;;;;;5013334;28;20544;-69
2022/05/10 12:36:16;;;;;;;7.73;6.93;;;27.00;50.70;;;;;;5039922;28;20471;-68
2022/05/10 12:38:47;;;;;;;7.90;7.20;;;26.70;53.50;;;;;;5055621;28;20792;-68
2022/05/10 12:41:36;;;;;;;6.70;6.20;;;26.70;54.30;;;;;;5055291;28;20448;-68
2022/05/10 12:44:41;;;;;;;7.63;7.03;;;26.40;53.20;;;;;;5054726;28;20469;-68
2022/05/10 12:47:21;;;;;;;7.20;6.60;;;26.30;56.10;;;;;;5055182;28;20453;-70
2022/05/10 12:50:02;;;;;;;7.60;6.90;;;26.20;54.50;;;;;;5055100;28;20478;-69
2022/05/10 12:52:40;;;;;;;6.70;6.20;;;26.20;56.80;;;;;;5054847;28;20495;-68
2022/05/10 12:55:10;;;;;;;7.27;6.77;;;25.90;50.80;;;;;;5054631;28;20565;-68
2022/05/10 12:57:48;;;;;;;6.77;6.20;;;26.10;56.00;;;;;;5054906;28;20447;-68
2022/05/10 13:00:20;;;;;;;7.10;6.60;;;26.20;56.80;;;;;;5054966;28;20524;-68
2022/05/10 13:02:52;;;;;;;7.00;6.50;;;26.20;51.00;;;;;;5054537;28;20449;-68
2022/05/10 13:05:22;;;;;;;6.60;6.10;;;26.50;52.20;;;;;;5054998;28;20470;-68
2022/05/10 13:08:09;;;;;;;7.70;6.67;;;26.50;48.90;;;;;;5054622;28;20486;-68
2022/05/10 13:10:37;;;;;;;7.50;6.90;;;26.50;49.50;;;;;;5054599;28;20546;-68